Flight Track Log - Related Links

Times and Time Zones

All times are in EDT time to prevent confusion due to time zone crossing. See the KAP46 flight status page for this flight to view local times or setup timezone preferences in your user account.

Time Position Orientation Groundspeed Altitude Reporting Facility
EDT Latitude Longitude Course Direction KTS MPH feet Rate Location/Type
Fri 01:18:39 PM 44.6603 -74.7925 167° South 151 174 6,600  Level Boston Center
Fri 01:19:40 PM 44.6214 -74.7647 153° Southeast 156 180 7,300 492 Climbing Boston Center
Fri 01:20:41 PM 44.5758 -74.7483 166° South 161 185 7,600 151 Climbing Boston Center
Fri 01:21:39 PM 44.5303 -74.7261 161° South 166 191 7,600 -51 Level Boston Center
Fri 01:22:39 PM 44.4808 -74.7008 160° South 177 204 7,500 -49 Descending Boston Center
Fri 01:23:00 PM 44.7867 -74.7622 167° South  Level FlightAware Approximate
Fri 01:23:41 PM 44.4356 -74.6789 161° South 182 209 7,500  Level Boston Center
Fri 01:24:00 PM 44.7615 -74.7538 167° South  Level FlightAware Approximate
Fri 01:24:41 PM 44.3922 -74.6539 158° South 182 209 7,600  Level Boston Center
Fri 01:25:39 PM 44.3489 -74.6292 158° South 177 204 7,600  Level Boston Center
Fri 01:26:39 PM 44.3056 -74.6014 155° Southeast 172 198 7,600 -50 Level Boston Center
Fri 01:27:40 PM 44.2561 -74.5792 162° South 172 198 7,500  Descending Boston Center
Fri 01:28:40 PM 44.2083 -74.5717 174° South 177 204 7,600 45 Climbing Boston Center
Fri 01:29:52 PM 44.1606 -74.5583 169° South 177 204 7,600 135 Level Boston Center
Fri 01:30:53 PM 44.1067 -74.5392 166° South 177 204 7,900  Climbing Boston Center
Fri 01:31:53 PM 44.0633 -74.5203 163° South 177 204 7,600 -645 Descending Boston Center
Fri 01:32:54 PM 44.0097 -74.4925 160° South 184 212 6,600 -661 Descending Boston Center
Fri 01:33:51 PM 43.9644 -74.4564 150° Southeast 190 219 6,300 -407 Descending Boston Center
Fri 01:34:52 PM 43.9150 -74.4231 154° Southeast 190 219 5,800 -347 Descending Boston Center
Fri 01:35:52 PM 43.8717 -74.3928 153° Southeast 190 219 5,600 -149 Descending Boston Center
Fri 01:36:53 PM 43.8286 -74.3567 149° Southeast 190 219 5,500 -50 Descending Boston Center
Fri 01:37:53 PM 43.7833 -74.3267 154° Southeast 184 212 5,500 51 Level Boston Center
Fri 01:38:51 PM 43.7397 -74.3050 160° South 177 204 5,600  Climbing Boston Center
Fri 01:39:52 PM 43.6964 -74.2864 163° South 171 197 5,500 -50 Descending Boston Center
Fri 01:40:52 PM 43.6528 -74.2681 163° South 166 191 5,500 50 Level Boston Center
Fri 01:41:53 PM 43.6094 -74.2522 165° South 161 185 5,600 101 Climbing Boston Center
Fri 01:42:51 PM 43.5639 -74.2339 164° South 161 185 5,700 -50 Climbing Boston Center
Fri 01:43:52 PM 43.5183 -74.2094 159° South 167 192 5,500 -98 Descending Boston Center
Fri 01:44:53 PM 43.4772 -74.1825 155° Southeast 167 192 5,500  Level Boston Center
Fri 01:45:53 PM 43.4317 -74.1528 155° Southeast 172 198 5,500  Level Boston Center
Fri 01:46:51 PM 43.3944 -74.1289 155° Southeast 172 198 5,500  Level Boston Center
Fri 01:47:22 PM 43.3633 -74.1192 167° South 168 193 5,500 98 Level Boston Center
Fri 01:47:52 PM 43.3428 -74.1044 152° Southeast 172 198 5,600  Climbing Boston Center
Fri 01:48:53 PM 43.3056 -74.0864 161° South 166 191 5,500  Descending Boston Center
Fri 01:49:23 PM 43.2764 -74.0742 163° South 170 196 5,600  Climbing Boston Center
Fri 01:49:53 PM 43.2539 -74.0622 159° South 166 191 5,500 -68 Descending Boston Center
Fri 01:50:51 PM 43.2167 -74.0411 158° South 166 191 5,500 51 Level Boston Center
Fri 01:51:51 PM 43.1669 -74.0142 158° South 166 191 5,600 50 Climbing Boston Center
Fri 01:52:52 PM 43.1275 -73.9961 162° South 166 191 5,600 -124 Level Boston Center
Fri 01:53:28 PM 43.0944 -73.9811 162° South 170 196 5,400 -462 Descending Boston Center
Fri 01:54:10 PM 43.0633 -73.9661 161° South 180 207 5,000 -424 Descending Boston Center
Fri 01:54:53 PM 43.0322 -73.9539 164° South 178 205 4,800 -350 Descending Boston Center
Fri 01:55:53 PM 42.9764 -73.9328 165° South 186 214 4,400 -467 Descending Boston Center
Fri 01:56:23 PM 42.9514 -73.9236 165° South 184 212 4,100 -343 Descending Boston Center
Fri 01:57:03 PM 42.9347 -73.9147 159° South 186 214 4,000 -360 Descending Boston Center
Fri 01:58:03 PM 42.8747 -73.8906 164° South 181 208 3,500 -350 Descending Boston Center
Fri 01:59:03 PM 42.8228 -73.8753 168° South 181 208 3,300 -618 Descending Boston Center
Fri 02:00:19 PM 42.7583 -73.8653 174° South 182 209 2,100 -761 Descending Boston Center
Fri 02:01:25 PM 42.7064 -73.8472 166° South 172 198 1,500 -582 Descending Boston Center
Fri 02:02:33 PM 42.7131 -73.8050 78° East 127 146 800 -618 Descending Boston Center
Fri 02:04:00 PM 42.7333 -73.8000 170° South  Level FlightAware Approximate
Fri 02:11:00 PM 42.7491 -73.8020 170° South  Level Estimated
Fri 02:12:00 PM 42.7491 -73.8020 170° South  Level Estimated
Fri 02:13:00 PM 42.7491 -73.8020 170° South  Level Estimated
Fri 02:14:00 PM 42.7491 -73.8020 170° South  Level Estimated

Login

Don't have an account? Register now (free) for customized features, flight alerts, and more!